Meteo Giornale » Osservazioni meteo Austria » Vienna-Schwechat

ore: 11:50 - Osservazioni Meteo Vienna-Schwechat
Lat. 48° 7' N Lon. 16° 34' E Alt. 183 metri s.l.m.

sereno Europe/Vienna

25 °C

Sereno

Temp. 24 Ore

17 °C

28 °C

Nord-Ovest

24 Km/h

Dew point 11 °C

Umidità 41 %

Visibilità  10 Km

Il sole sorge alle ore 04:51

Il sole tramonta alle ore 20:59

Data e Ora Cielo e Fenomeni T °C DP °C Um. % Pres. hPa Vis. km Vento km/h
Oggi h: 11:50 sereno Sereno 25 11 41 1022 10 NO 24
Oggi h: 11:20 sereno Sereno 26 12 41 1022 10 NO 20.3
Oggi h: 10:50 sereno Sereno 25 12 44 1022 10 NO 20.3
Oggi h: 10:20 sereno Sereno 25 11 41 1022 10 NO 24
Oggi h: 09:50 sereno Sereno 24 11 43 1022 10 NO 25.9
Oggi h: 09:20 sereno Sereno 23 11 46 1022 10 NO 20.3
Oggi h: 08:50 sereno Sereno 23 11 46 1022 10 NO 20.3
Oggi h: 08:20 sereno Sereno 22 11 49 1022 10 NO 18.5
Oggi h: 07:50 sereno Sereno 21 12 56 1022 10 NO 18.5
Oggi h: 07:20 sereno Sereno 20 12 59 1022 10 NO 16.7
Oggi h: 06:20 sereno Sereno 19 12 63 1022 10 NO 16.7
Oggi h: 05:50 sereno Sereno 18 12 67 1021 10 NO 16.7
Oggi h: 05:20 sereno Sereno 18 11 63 1021 10 O/NO 20.3
Oggi h: 04:50 sereno Sereno 18 11 63 1021 10 NO 16.7
Oggi h: 04:20 sereno Sereno 17 11 67 1021 10 NO 11.1
Oggi h: 03:50 sereno Sereno 18 12 67 1021 10 NO 13
Oggi h: 03:20 sereno Sereno 19 12 63 1021 10 NO 14.8
Oggi h: 02:50 sereno Sereno 19 12 63 1021 10 NO 18.5
Oggi h: 02:20 sereno Sereno 20 11 56 1020 10 NO 18.5
Oggi h: 01:50 sereno Sereno 20 12 59 1020 10 NO 18.5
Oggi h: 01:20 sereno Sereno 20 12 59 1021 10 NO 18.5
Oggi h: 00:50 sereno Sereno 20 12 59 1020 10 NO 16.7
Oggi h: 00:20 sereno Sereno 21 12 56 1020 10 NO 18.5
Ieri h: 23:50 sereno Sereno 21 12 56 1020 10 NO 16.7
Ieri h: 23:20 sereno Sereno 20 11 56 1020 10 NO 14.8
Ieri h: 22:50 sereno Sereno 21 11 52 1020 10 NO 14.8
Ieri h: 22:20 sereno Sereno 22 11 49 1020 10 NO 14.8
Ieri h: 21:50 sereno Sereno 22 11 49 1020 10 NO 13
Ieri h: 21:20 sereno Sereno 23 12 49 1019 10 NO 14.8
Ieri h: 20:50 sereno Sereno 23 12 49 1019 10 N/NO 11.1
Ieri h: 20:20 sereno Sereno 24 13 50 1018 10 N/NO 14.8
Ieri h: 19:50 sereno Sereno 24 15 57 1018 10 N 3.7
Ieri h: 19:20 sereno Sereno 25 15 53 1018 10 NE 11.1
Ieri h: 18:50 sereno Sereno 25 14 50 1018 10 N 9.3
Ieri h: 18:20 sereno Sereno 25 14 50 1017 10 N/NE 16.7
Ieri h: 17:50 sereno Sereno 26 9 34 1017 10 N/NO 25.9
Ieri h: 17:20 sereno Sereno 27 8 30 1017 10 N/NO 27.8
Ieri h: 16:50 sereno Sereno 28 9 30 1017 10 NO 31.5
Ieri h: 16:20 poco_nuvoloso Poco Nuvoloso 28 10 32 1017 10 O/NO 31.5
Ieri h: 14:50 nuvoloso Nuvoloso 28 10 32 1018 10 NO 31.5
Ieri h: 14:20 poco_nuvoloso Poco Nuvoloso 28 10 32 1018 10 NO 31.5
Ieri h: 13:50 poco_nuvoloso Poco Nuvoloso 28 10 32 1018 10 NO 25.9
Ieri h: 13:20 poco_nuvoloso Poco Nuvoloso 27 10 34 1018 10 NO 35.2
Ieri h: 12:50 poco_nuvoloso Poco Nuvoloso 27 11 36 1018 10 NO 33.3